Alvin, Illinois
Current Conditions -  °F | °C
As of 2:55 AM on Friday 31 Oct 2014 (Local Time) from KDNV Reporting Station
Overcast Overcast  
Wind Chill:   Ceiling: 6000
Heat Index:   Visibility: 7mi
Dew Point:   Wind: 5mph
Humidity: 89%   Direction: 290°WNW
Pressure: 30.01"   Gusts: NA
Location:  40.31°N, 87.61°W
Report Text: KDNV 310755Z AUTO 29004KT 7SM OVC060 06/04 A3001 RMK AO2 T00600043
Loading
Personal Weather Stations






























Interactive Weather Map
Tropical Storm Tracking
New forecast layout! Learn more

10-Day Weather Forecast

Advertisements
Track Severe Weather on mobile